createdAt,value
2023-01-29T00:01:54.767Z,99684.69
2023-01-29T00:04:46.928Z,99681.87
2023-01-29T00:07:39.063Z,99686.59
2023-01-29T00:10:31.411Z,99678.61
2023-01-29T00:13:23.566Z,99678.92
2023-01-29T00:16:16.111Z,99682.46
2023-01-29T00:19:08.314Z,99684.55
2023-01-29T00:22:00.527Z,99686.61
2023-01-29T00:24:52.571Z,99689.51
2023-01-29T00:27:44.989Z,99687.65
2023-01-29T00:30:38.686Z,99685.34
2023-01-29T00:33:31.537Z,99690.89
2023-01-29T00:36:24.894Z,99692.98
2023-01-29T00:39:17.336Z,99697.45
2023-01-29T00:42:27.037Z,99700.30
2023-01-29T00:45:19.463Z,99695.50
2023-01-29T00:48:11.555Z,99696.22
2023-01-29T00:51:04.193Z,99700.27
2023-01-29T00:53:58.242Z,99695.57
2023-01-29T00:56:50.314Z,99699.33
2023-01-29T00:59:42.430Z,99703.57
2023-01-29T01:02:52.081Z,99715.04
2023-01-29T01:05:45.476Z,99709.64
2023-01-29T01:08:55.261Z,99712.00
2023-01-29T01:11:47.434Z,99714.94
2023-01-29T01:14:43.245Z,99714.83
2023-01-29T01:17:35.504Z,99712.70
2023-01-29T01:20:28.778Z,99712.66
2023-01-29T01:23:21.464Z,99705.22
2023-01-29T01:26:13.750Z,99704.65
2023-01-29T01:29:05.951Z,99704.63
2023-01-29T01:31:58.143Z,99702.20
2023-01-29T01:34:50.227Z,99700.05
2023-01-29T01:37:42.864Z,99694.94
2023-01-29T01:40:35.051Z,99700.90
2023-01-29T01:43:27.213Z,99699.66
2023-01-29T01:46:19.641Z,99695.02
2023-01-29T01:49:16.527Z,99690.58
2023-01-29T01:52:09.511Z,99687.73
2023-01-29T01:55:02.305Z,99688.45
2023-01-29T01:58:01.008Z,99685.30
2023-01-29T02:00:38.278Z,99678.36
2023-01-29T02:03:50.073Z,99664.56
2023-01-29T02:07:02.068Z,99665.42
2023-01-29T02:09:59.234Z,99662.61
2023-01-29T02:12:52.332Z,99672.77
2023-01-29T02:15:46.780Z,99681.77
2023-01-29T02:18:39.467Z,99678.53
2023-01-29T02:21:42.646Z,99669.49
2023-01-29T02:25:10.859Z,99672.05
2023-01-29T02:28:33.231Z,99665.58
2023-01-29T02:31:36.027Z,99663.15
2023-01-29T02:34:52.883Z,99661.54
2023-01-29T02:37:52.311Z,99664.52
2023-01-29T02:40:48.101Z,99655.57
2023-01-29T02:43:46.903Z,99660.86
2023-01-29T02:46:45.723Z,99671.17
2023-01-29T02:49:25.481Z,99675.94
2023-01-29T02:52:21.217Z,99673.71
2023-01-29T02:55:19.023Z,99681.79
2023-01-29T02:58:17.749Z,99685.84
2023-01-29T03:01:14.406Z,99693.14
2023-01-29T03:04:12.325Z,99688.38
2023-01-29T03:07:10.129Z,99687.70
2023-01-29T03:10:05.669Z,99680.48
2023-01-29T03:13:03.577Z,99681.73
2023-01-29T03:16:05.448Z,99687.07
2023-01-29T03:19:02.668Z,99695.61
2023-01-29T03:22:00.157Z,99700.16
2023-01-29T03:25:12.826Z,99709.13
2023-01-29T03:28:25.755Z,99704.70
2023-01-29T03:31:26.357Z,99708.06
2023-01-29T03:34:24.470Z,99706.83
2023-01-29T03:37:25.252Z,99703.21
2023-01-29T03:40:18.619Z,99699.45
2023-01-29T03:43:16.496Z,99702.62
2023-01-29T03:46:18.655Z,99698.63
2023-01-29T03:49:21.345Z,99697.98
2023-01-29T03:52:16.389Z,99689.84
2023-01-29T03:55:16.257Z,99686.20
2023-01-29T03:58:18.284Z,99683.60
2023-01-29T04:01:17.858Z,99673.83
2023-01-29T04:04:16.523Z,99675.11
2023-01-29T04:07:13.473Z,99677.81
2023-01-29T04:10:10.275Z,99675.85
2023-01-29T04:13:06.847Z,99683.58
2023-01-29T04:16:02.115Z,99680.65
2023-01-29T04:18:55.861Z,99678.29
2023-01-29T04:21:50.382Z,99677.44
2023-01-29T04:24:43.509Z,99662.80
2023-01-29T04:27:44.303Z,99661.75
2023-01-29T04:30:43.317Z,99656.23
2023-01-29T04:33:43.925Z,99642.53
2023-01-29T04:36:42.568Z,99638.44
2023-01-29T04:39:45.246Z,99627.71
2023-01-29T04:42:45.723Z,99631.10
2023-01-29T04:45:47.730Z,99630.49
2023-01-29T04:48:51.087Z,99618.05
2023-01-29T04:51:50.873Z,99608.75
2023-01-29T04:54:53.473Z,99606.01
2023-01-29T04:57:51.752Z,99608.20
2023-01-29T05:00:46.137Z,99607.59
2023-01-29T05:03:41.966Z,99608.83
2023-01-29T05:06:24.960Z,99611.60
2023-01-29T05:09:19.937Z,99618.23
2023-01-29T05:12:15.536Z,99618.75
2023-01-29T05:15:16.989Z,99619.06
2023-01-29T05:18:10.174Z,99620.70
2023-01-29T05:21:07.416Z,99622.50
2023-01-29T05:24:17.205Z,99625.55
2023-01-29T05:27:30.176Z,99628.17
2023-01-29T05:30:22.719Z,99627.02
2023-01-29T05:32:57.733Z,99628.98
2023-01-29T05:35:33.246Z,99633.60
2023-01-29T05:38:25.634Z,99631.14
2023-01-29T05:41:17.733Z,99623.09
2023-01-29T05:44:10.631Z,99621.39
2023-01-29T05:47:03.627Z,99622.84
2023-01-29T05:49:55.753Z,99628.60
2023-01-29T05:52:47.837Z,99632.83
2023-01-29T05:55:39.951Z,99632.39
2023-01-29T05:58:32.788Z,99633.10
2023-01-29T06:01:26.987Z,99632.05
2023-01-29T06:04:19.150Z,99628.54
2023-01-29T06:07:11.335Z,99637.17
2023-01-29T06:10:03.472Z,99637.20
2023-01-29T06:12:55.537Z,99636.27
2023-01-29T06:15:47.754Z,99636.88
2023-01-29T06:18:40.500Z,99636.77
2023-01-29T06:21:32.564Z,99637.75
2023-01-29T06:24:24.625Z,99637.80
2023-01-29T06:27:16.777Z,99641.98
2023-01-29T06:30:10.807Z,99644.34
2023-01-29T06:33:02.978Z,99647.50
2023-01-29T06:35:59.740Z,99647.13
2023-01-29T06:38:52.013Z,99645.97
2023-01-29T06:41:45.352Z,99645.56
2023-01-29T06:44:37.214Z,99642.23
2023-01-29T06:47:29.898Z,99632.46
2023-01-29T06:50:22.175Z,99630.73
2023-01-29T06:53:14.649Z,99635.20
2023-01-29T06:55:51.972Z,99639.91
2023-01-29T06:58:44.113Z,99638.80
2023-01-29T07:01:36.834Z,99639.27
2023-01-29T07:04:29.134Z,99637.91
2023-01-29T07:07:13.253Z,99644.13
2023-01-29T07:10:05.989Z,99646.48
2023-01-29T07:12:59.757Z,99648.05
2023-01-29T07:15:51.832Z,99646.91
2023-01-29T07:18:43.909Z,99646.73
2023-01-29T07:21:35.995Z,99649.64
2023-01-29T07:24:28.293Z,99653.45
2023-01-29T07:27:20.430Z,99660.33
2023-01-29T07:30:14.812Z,99657.48
2023-01-29T07:33:09.099Z,99663.20
2023-01-29T07:36:01.140Z,99657.86
2023-01-29T07:38:53.748Z,99659.33
2023-01-29T07:41:45.930Z,99667.02
2023-01-29T07:44:38.128Z,99669.90
2023-01-29T07:47:10.263Z,99664.36
2023-01-29T07:50:02.442Z,99665.77
2023-01-29T07:52:56.818Z,99668.52
2023-01-29T07:55:48.913Z,99672.95
2023-01-29T07:58:41.040Z,99679.61
2023-01-29T08:01:33.186Z,99687.36
2023-01-29T08:04:25.622Z,99690.71
2023-01-29T08:07:17.666Z,99692.52
2023-01-29T08:10:11.007Z,99694.62
2023-01-29T08:12:46.130Z,99700.92
2023-01-29T08:18:50.612Z,99704.78
2023-01-29T08:21:42.755Z,99700.40
2023-01-29T08:24:47.731Z,99700.27
2023-01-29T08:27:46.348Z,99704.89
2023-01-29T08:30:38.704Z,99698.89
2023-01-29T08:33:38.704Z,99702.55
2023-01-29T08:36:31.469Z,99708.20
2023-01-29T08:39:06.269Z,99706.64
2023-01-29T08:41:41.009Z,99716.16
2023-01-29T08:44:33.250Z,99714.27
2023-01-29T08:47:26.221Z,99712.95
2023-01-29T08:50:20.458Z,99712.17
2023-01-29T08:53:00.400Z,99714.02
2023-01-29T08:55:53.036Z,99712.60
2023-01-29T08:58:45.300Z,99705.25
2023-01-29T09:01:37.543Z,99707.14
2023-01-29T09:04:29.637Z,99709.66
2023-01-29T09:07:21.858Z,99695.42
2023-01-29T09:10:14.480Z,99679.15
2023-01-29T09:13:06.710Z,99672.08
2023-01-29T09:16:02.100Z,99663.81
2023-01-29T09:18:36.289Z,99654.69
2023-01-29T09:21:28.231Z,99656.95
2023-01-29T09:24:00.295Z,99661.08
2023-01-29T09:26:52.407Z,99663.42
2023-01-29T09:29:44.547Z,99673.16
2023-01-29T09:32:52.548Z,99675.00
2023-01-29T09:35:47.853Z,99672.02
2023-01-29T09:38:39.926Z,99668.77
2023-01-29T09:41:52.405Z,99671.48
2023-01-29T09:44:31.273Z,99674.18
2023-01-29T09:47:28.104Z,99672.50
2023-01-29T09:50:07.028Z,99674.69
2023-01-29T09:52:50.512Z,99671.27
2023-01-29T09:55:49.516Z,99665.02
2023-01-29T09:58:44.546Z,99662.34
2023-01-29T10:01:45.064Z,99656.02
2023-01-29T10:05:14.308Z,99649.77
2023-01-29T10:08:27.836Z,99636.52
2023-01-29T10:11:28.586Z,99620.50
2023-01-29T10:14:28.893Z,99614.59
2023-01-29T10:17:35.672Z,99617.77
2023-01-29T10:20:39.337Z,99622.13
2023-01-29T10:23:28.162Z,99614.40
2023-01-29T10:26:03.494Z,99603.90
2023-01-29T10:28:47.575Z,99593.48
2023-01-29T10:31:41.985Z,99588.33
2023-01-29T10:34:41.038Z,99583.79
2023-01-29T10:37:21.518Z,99577.05
2023-01-29T10:40:23.605Z,99572.04
2023-01-29T10:43:21.790Z,99564.58
2023-01-29T10:46:26.040Z,99561.56
2023-01-29T10:49:30.763Z,99555.89
2023-01-29T10:52:27.324Z,99545.26
2023-01-29T10:55:35.056Z,99539.44
2023-01-29T10:58:35.782Z,99529.34
2023-01-29T11:01:27.978Z,99523.48
2023-01-29T11:04:20.271Z,99521.84
2023-01-29T11:07:13.042Z,99517.45
2023-01-29T11:10:12.139Z,99509.58
2023-01-29T11:13:06.354Z,99499.77
2023-01-29T11:15:58.562Z,99496.88
2023-01-29T11:19:01.838Z,99488.13
2023-01-29T11:21:58.037Z,99478.78
2023-01-29T11:25:11.558Z,99471.80
2023-01-29T11:28:05.321Z,99467.67
2023-01-29T11:30:58.362Z,99470.50
2023-01-29T11:33:51.806Z,99470.04
2023-01-29T11:36:44.996Z,99468.70
2023-01-29T11:39:44.335Z,99464.62
2023-01-29T11:42:36.515Z,99465.86
2023-01-29T11:45:34.860Z,99465.31
2023-01-29T11:48:33.912Z,99465.45
2023-01-29T11:51:35.089Z,99467.20
2023-01-29T11:54:20.871Z,99465.55
2023-01-29T11:57:34.077Z,99465.85
2023-01-29T12:00:22.047Z,99466.73
2023-01-29T12:03:24.992Z,99466.18
2023-01-29T12:06:22.984Z,99464.95
2023-01-29T12:09:10.789Z,99459.56
2023-01-29T12:12:28.784Z,99453.54
2023-01-29T12:15:25.566Z,99451.71
2023-01-29T12:18:30.924Z,99453.14
2023-01-29T12:21:35.015Z,99455.23
2023-01-29T12:24:43.511Z,99449.38
2023-01-29T12:27:40.431Z,99439.77
2023-01-29T12:30:39.560Z,99436.27
2023-01-29T12:33:39.788Z,99434.18
2023-01-29T12:36:39.697Z,99422.27
2023-01-29T12:39:21.303Z,99417.42
2023-01-29T12:42:19.065Z,99418.81
2023-01-29T12:45:18.171Z,99424.67
2023-01-29T12:48:14.946Z,99420.87
2023-01-29T12:51:12.677Z,99413.47
2023-01-29T12:54:01.113Z,99412.53
2023-01-29T12:56:57.115Z,99402.56
2023-01-29T12:59:54.013Z,99399.09
2023-01-29T13:02:41.658Z,99398.93
2023-01-29T13:05:40.199Z,99398.55
2023-01-29T13:08:36.947Z,99399.77
2023-01-29T13:11:37.816Z,99395.62
2023-01-29T13:14:37.394Z,99394.69
2023-01-29T13:17:35.854Z,99392.83
2023-01-29T13:20:32.884Z,99389.20
2023-01-29T13:23:29.516Z,99386.27
2023-01-29T13:26:05.673Z,99381.02
2023-01-29T13:28:58.838Z,99377.22
2023-01-29T13:31:53.543Z,99379.14
2023-01-29T13:34:50.502Z,99376.25
2023-01-29T13:37:49.436Z,99374.55
2023-01-29T13:41:02.459Z,99371.39
2023-01-29T13:43:54.742Z,99365.02
2023-01-29T13:46:54.857Z,99358.90
2023-01-29T13:49:56.444Z,99354.20
2023-01-29T13:52:57.063Z,99347.98
2023-01-29T13:55:49.544Z,99346.71
2023-01-29T13:58:57.853Z,99342.38
2023-01-29T14:02:23.557Z,99346.55
2023-01-29T14:05:40.158Z,99349.39
2023-01-29T14:08:45.222Z,99345.65
2023-01-29T14:11:38.518Z,99348.78
2023-01-29T14:15:06.902Z,99347.27
2023-01-29T14:18:26.129Z,99342.50
2023-01-29T14:21:28.438Z,99344.86
2023-01-29T14:24:23.724Z,99343.00
2023-01-29T14:27:25.235Z,99339.96
2023-01-29T14:30:20.687Z,99336.65
2023-01-29T14:33:29.384Z,99335.58
2023-01-29T14:36:22.572Z,99347.70
2023-01-29T14:39:34.026Z,99346.77
2023-01-29T14:42:30.392Z,99345.02
2023-01-29T14:45:25.633Z,99354.70
2023-01-29T14:48:39.793Z,99353.25
2023-01-29T14:51:38.485Z,99356.40
2023-01-29T14:54:34.015Z,99347.68
2023-01-29T14:57:27.159Z,99348.28
2023-01-29T15:00:27.578Z,99347.31
2023-01-29T15:03:29.687Z,99346.39
2023-01-29T15:06:33.547Z,99343.86
2023-01-29T15:09:37.110Z,99340.02
2023-01-29T15:12:34.646Z,99345.38
2023-01-29T15:15:38.084Z,99346.02
2023-01-29T15:18:36.657Z,99338.14
2023-01-29T15:21:28.792Z,99341.27
2023-01-29T15:24:20.873Z,99345.90
2023-01-29T15:26:56.726Z,99345.17
2023-01-29T15:29:56.429Z,99341.39
2023-01-29T15:32:49.310Z,99336.73
2023-01-29T15:35:43.525Z,99338.21
2023-01-29T15:38:36.067Z,99339.23
2023-01-29T15:41:28.210Z,99333.64
2023-01-29T15:44:24.559Z,99332.04
2023-01-29T15:47:17.460Z,99331.02
2023-01-29T15:50:13.841Z,99316.45
2023-01-29T15:52:49.831Z,99314.68
2023-01-29T15:55:42.751Z,99317.09
2023-01-29T15:58:35.823Z,99309.98
2023-01-29T16:01:31.090Z,99301.69
2023-01-29T16:04:26.797Z,99307.92
2023-01-29T16:07:19.021Z,99309.73
2023-01-29T16:10:18.625Z,99308.10
2023-01-29T16:13:18.526Z,99311.45
2023-01-29T16:16:23.111Z,99305.95
2023-01-29T16:19:24.996Z,99301.69
2023-01-29T16:22:17.155Z,99297.23
2023-01-29T16:25:13.611Z,99291.06
2023-01-29T16:28:10.958Z,99290.35
2023-01-29T16:31:04.642Z,99292.82
2023-01-29T16:33:58.928Z,99289.12
2023-01-29T16:36:53.514Z,99294.48
2023-01-29T16:39:49.352Z,99296.67
2023-01-29T16:42:42.025Z,99300.08
2023-01-29T16:48:31.999Z,99294.31
2023-01-29T16:51:29.715Z,99293.51
2023-01-29T16:54:25.669Z,99296.73
2023-01-29T16:57:06.781Z,99299.18
2023-01-29T17:00:01.421Z,99298.17
2023-01-29T17:02:57.151Z,99292.74
2023-01-29T17:05:50.954Z,99298.65
2023-01-29T17:08:45.280Z,99295.40
2023-01-29T17:11:41.796Z,99295.92
2023-01-29T17:14:38.507Z,99296.79
2023-01-29T17:17:35.950Z,99292.88
2023-01-29T17:20:28.828Z,99283.39
2023-01-29T17:23:21.501Z,99278.48
2023-01-29T17:26:15.408Z,99278.37
2023-01-29T17:29:10.856Z,99280.92
2023-01-29T17:32:03.044Z,99279.50
2023-01-29T17:34:55.188Z,99278.12
2023-01-29T17:37:48.219Z,99272.61
2023-01-29T17:40:45.139Z,99269.96
2023-01-29T17:43:37.838Z,99268.92
2023-01-29T17:46:29.960Z,99267.71
2023-01-29T17:49:25.587Z,99255.30
2023-01-29T17:52:17.652Z,99246.45
2023-01-29T17:55:11.301Z,99246.98
2023-01-29T17:58:03.475Z,99249.67
2023-01-29T18:00:56.339Z,99245.44
2023-01-29T18:03:48.582Z,99249.27
2023-01-29T18:06:43.095Z,99255.98
2023-01-29T18:09:35.241Z,99258.86
2023-01-29T18:12:27.641Z,99248.97
2023-01-29T18:15:20.281Z,99248.42
2023-01-29T18:18:03.090Z,99245.93
2023-01-29T18:20:56.147Z,99246.98
2023-01-29T18:23:48.368Z,99244.27
2023-01-29T18:26:40.797Z,99240.94
2023-01-29T18:29:32.900Z,99232.17
2023-01-29T18:32:25.495Z,99236.31
2023-01-29T18:35:18.250Z,99242.14
2023-01-29T18:37:59.685Z,99239.60
2023-01-29T18:40:51.805Z,99236.52
2023-01-29T18:43:44.384Z,99238.40
2023-01-29T18:46:36.679Z,99235.41
2023-01-29T18:49:29.121Z,99236.19
2023-01-29T18:52:21.267Z,99230.64
2023-01-29T18:55:13.554Z,99224.91
2023-01-29T18:58:26.624Z,99224.52
2023-01-29T19:01:17.793Z,99224.18
2023-01-29T19:04:10.042Z,99224.52
2023-01-29T19:07:02.333Z,99219.40
2023-01-29T19:09:54.948Z,99215.23
2023-01-29T19:12:47.888Z,99213.21
2023-01-29T19:15:45.164Z,99208.07
2023-01-29T19:18:38.743Z,99211.09
2023-01-29T19:21:39.105Z,99209.92
2023-01-29T19:24:14.903Z,99203.60
2023-01-29T19:26:46.985Z,99204.60
2023-01-29T19:29:30.002Z,99203.21
2023-01-29T19:32:22.819Z,99204.04
2023-01-29T19:35:15.129Z,99203.47
2023-01-29T19:38:07.471Z,99203.52
2023-01-29T19:41:01.827Z,99201.25
2023-01-29T19:43:45.856Z,99198.26
2023-01-29T19:46:39.143Z,99199.45
2023-01-29T19:49:34.091Z,99199.33
2023-01-29T19:52:50.141Z,99197.53
2023-01-29T19:55:31.798Z,99187.98
2023-01-29T19:58:24.906Z,99184.90
2023-01-29T20:01:19.280Z,99184.88
2023-01-29T20:04:00.532Z,99182.90
2023-01-29T20:06:52.911Z,99182.29
2023-01-29T20:09:44.995Z,99179.11
2023-01-29T20:12:37.059Z,99183.55
2023-01-29T20:15:29.408Z,99181.93
2023-01-29T20:18:22.146Z,99188.23
2023-01-29T20:21:16.393Z,99188.23
2023-01-29T20:24:12.405Z,99182.59
2023-01-29T20:27:03.015Z,99180.09
2023-01-29T20:29:55.530Z,99176.52
2023-01-29T20:32:47.630Z,99178.05
2023-01-29T20:35:40.372Z,99179.94
2023-01-29T20:38:34.598Z,99177.98
2023-01-29T20:41:27.726Z,99172.52
2023-01-29T20:44:20.376Z,99171.70
2023-01-29T20:47:14.594Z,99167.00
2023-01-29T20:49:51.992Z,99168.42
2023-01-29T20:52:44.804Z,99168.27
2023-01-29T20:55:37.065Z,99165.84
2023-01-29T20:58:12.309Z,99163.22
2023-01-29T21:01:09.610Z,99159.13
2023-01-29T21:04:01.752Z,99157.74
2023-01-29T21:06:54.127Z,99151.85
2023-01-29T21:09:29.163Z,99143.14
2023-01-29T21:12:21.316Z,99134.52
2023-01-29T21:14:53.204Z,99129.08
2023-01-29T21:17:45.295Z,99126.46
2023-01-29T21:20:37.656Z,99127.57
2023-01-29T21:23:29.846Z,99116.44
2023-01-29T21:26:23.257Z,99116.54
2023-01-29T21:29:16.253Z,99110.97
2023-01-29T21:32:09.258Z,99106.77
2023-01-29T21:35:01.472Z,99102.08
2023-01-29T21:37:53.687Z,99103.50
2023-01-29T21:40:45.614Z,99101.34
2023-01-29T21:43:38.943Z,99099.75
2023-01-29T21:46:31.061Z,99097.08
2023-01-29T21:49:23.241Z,99091.95
2023-01-29T21:52:16.461Z,99084.11
2023-01-29T21:55:09.626Z,99084.34
2023-01-29T21:58:02.359Z,99079.11
2023-01-29T22:00:54.477Z,99074.75
2023-01-29T22:03:47.519Z,99070.08
2023-01-29T22:06:39.805Z,99068.61
2023-01-29T22:09:31.906Z,99068.73
2023-01-29T22:12:24.252Z,99066.40
2023-01-29T22:15:16.865Z,99057.94
2023-01-29T22:18:09.089Z,99051.67
2023-01-29T22:21:02.648Z,99044.93
2023-01-29T22:23:54.764Z,99043.04
2023-01-29T22:26:37.492Z,99030.34
2023-01-29T22:29:29.885Z,99028.23
2023-01-29T22:32:22.117Z,99022.35
2023-01-29T22:35:14.383Z,99012.27
2023-01-29T22:37:56.196Z,99006.76
2023-01-29T22:40:53.069Z,99003.92
2023-01-29T22:43:45.199Z,99003.99
2023-01-29T22:46:37.311Z,99003.09
2023-01-29T22:49:30.375Z,98999.73
2023-01-29T22:52:24.356Z,98996.39
2023-01-29T22:55:16.525Z,98984.10
2023-01-29T22:58:08.936Z,98982.55
2023-01-29T23:01:01.098Z,98984.12
2023-01-29T23:03:53.244Z,98975.33
2023-01-29T23:06:45.406Z,98970.83
2023-01-29T23:09:37.516Z,98957.89
2023-01-29T23:12:30.103Z,98956.61
2023-01-29T23:15:22.188Z,98953.48
2023-01-29T23:18:14.283Z,98953.95
2023-01-29T23:21:06.723Z,98949.38
2023-01-29T23:24:00.489Z,98940.10
2023-01-29T23:27:21.642Z,98942.16
2023-01-29T23:30:15.245Z,98927.92
2023-01-29T23:33:08.344Z,98917.15
2023-01-29T23:36:01.293Z,98909.77
2023-01-29T23:38:53.602Z,98902.86
2023-01-29T23:41:46.151Z,98895.16
2023-01-29T23:44:40.115Z,98893.29
2023-01-29T23:47:17.515Z,98889.77
2023-01-29T23:50:11.482Z,98883.41
2023-01-29T23:53:03.606Z,98878.44
2023-01-29T23:56:03.666Z,98870.63
2023-01-29T23:58:41.027Z,98863.95
